CheckWX is a tool to help pilots better visualize weather data.  It is not intended as a substitute for an official pre-flight weather briefing.

13:03:09 UTC

KALB TAF
Albany International Airport
Albany, New York, USA
KALB 241138Z 2412/2512 29015G25KT P6SM BKN026 TEMPO 2412/2414 SCT025 BKN035 FM241400 29013G25KT P6SM BKN035 FM242300 32009KT P6SM SCT035 FM250600 VRB02KT P6SM SKC

May-24@
12:00 UTC

May-24 @ 12:00 UTC

May-24@
14:00 UTC

May-24 @ 14:00 UTC

KALB 241138Z 2412/2512 29015G25KT P6SM BKN026
Wind
  • 290° at 15 KTS
  • {Gusting to 25 KTS
Cloud Levels
  • Broken at 2,600' AGL

May-24@
12:00 UTC

May-24 @ 12:00 UTC

May-24@
14:00 UTC

May-24 @ 14:00 UTC

TEMPO 2412/2414 SCT025 BKN035

Temporary

Temporary Changes expected for less than half the time period

Cloud Levels
  • Scattered at 2,500' AGL
  • Broken at 3,500' AGL

May-24@
14:00 UTC

May-24 @ 14:00 UTC

May-24@
23:00 UTC

May-24 @ 23:00 UTC

FM241400 29013G25KT P6SM BKN035

From

From Standard forecast or significant change

Wind
  • 290° at 13 KTS
  • {Gusting to 25 KTS
Cloud Levels
  • Broken at 3,500' AGL

May-24@
23:00 UTC

May-24 @ 23:00 UTC

May-25@
06:00 UTC

May-25 @ 06:00 UTC

FM242300 32009KT P6SM SCT035

From

From Standard forecast or significant change

Wind
  • 320° at 9 KTS
Cloud Levels
  • Scattered at 3,500' AGL

May-25@
06:00 UTC

May-25 @ 06:00 UTC

May-25@
12:00 UTC

May-25 @ 12:00 UTC

FM250600 VRB02KT P6SM SKC

From

From Standard forecast or significant change

Wind
  • Variable at 2 KTS
Cloud Levels
  • Clear skies